Algoma, WV

5:42 PM EDT on July 24, 2014 (GMT -0400)
185 Beeson rd (KWVLASHM3) Elev 2513 ft | 37.42 °N, 81.20 °W | Change Station

Current weather conditions updated 7 seconds ago

Overcast
Overcast
67.7 °F
Feels Like 67.7 °F
N
0.0
Wind Variable Wind from NNE
Gusts 0.0 mph

Tomorrow is forecast to be Warmer than today.

Today
High -- | Low -- °F
--% Chance of Precip.
Yesterday
High -- | Low -- °F
Precip. -- in
6:23 AM 8:40 PM
Waning Crescent, 4% visible
Pressure 30.04 in
Visibility 1.2 miles
Clouds Mostly Cloudy 900 ft
Mostly Cloudy 2100 ft
Overcast 5500 ft
Dew Point 66 °F
Humidity 95%
Rainfall 0.49 in
Snow Depth Not available.
UV 1 out of 12
Pollen .60 out of 12
Air Quality Not available.
Flu Activity Not available.
SPECI KBLF 242127Z AUTO 26006KT 1 1/4SM RA BR BKN009 BKN021 OVC055 19/17 A3004 RMK AO2 RAB2057 TSB2059E14 P0016 T01890167

More Conditions Fewer Conditions

Pressure 30.04 in
Visibility 1.2 miles
Clouds Mostly Cloudy 900 ft
Mostly Cloudy 2100 ft
Overcast 5500 ft
Dew Point 66 °F
Humidity 95%
Rainfall 0.49 in
Snow Depth Not available.
UV 1 out of 12
Pollen .60 out of 12
Air Quality Not available.
Flu Activity Not available.
SPECI KBLF 242127Z AUTO 26006KT 1 1/4SM RA BR BKN009 BKN021 OVC055 19/17 A3004 RMK AO2 RAB2057 TSB2059E14 P0016 T01890167

More Conditions Fewer Conditions

10-Day Weather Forecast

Almanac

Astronomy

Jul. 24, 2014 Rise Set
Actual Time 6:23 AM EDT 8:40 PM EDT
Civil Twilight 5:53 AM EDT 9:09 PM EDT
Nautical Twilight 5:17 AM EDT 9:46 PM EDT
Astronomical Twilight 4:37 AM EDT 10:25 PM EDT
Moon 4:29 AM EDT 6:55 PM EDT
Length of Visible Light 15h 15m
Length of Day
14h 16m
Tomorrow will be 1m 35s shorter.
Waning Crescent, 4% of the Moon is Illuminated
Today
Waning Crescent
Jul 26
New
Aug 3
First Quarter
Aug 10
Full
Aug 17
Last Quarter

Today's Extremes

State Highs State Lows

Community

WunderPhotos

Upload Photos

1,737,139 photos uploaded!

WunderBlogs® & News

Nearby

Snow Depth

Station Depth Elevation
No new snow has been reported.

Earthquake Activity

City Distance Mag. Time & Date
No recent earthquake activity has been reported nearby.
Minimum magnitude displayed is 2.5.

Coastal Water Temperatures

Place Temperature
No Stations Reporting

Nearby Weather Stations

Station Location Temp. Dew Point Humidity Wind Precip. Elev Updated Type
185 Beeson rd, Lashmeet, WV 67.7 °F 66 °F 95% NNE  at  0.0 mph 0.19 in / hr 2513 ft 5:41 PM EDT Rapid Fire
Parkview Heights, Bluefield, VA 65.6 °F 65 °F 97% North  at  0.0 mph 0.22 in / hr 2402 ft 5:41 PM EDT Rapid Fire
Mullens, WV 67.9 °F 63 °F 84% NE  at  3.8 mph 0.00 in / hr 1585 ft 5:40 PM EDT Normal
South Bluefield, Bluefield, WV 64.5 °F 62 °F 92% South  at  0.0 mph 0.11 in / hr 2700 ft 5:41 PM EDT Rapid Fire
Oxley Hollow Road, Princeton, WV 67.4 °F 66 °F 95% WSW  at  0.0 mph 0.00 in / hr 2411 ft 5:38 PM EDT Normal
Flat Top Lake, Ghent, WV 64.2 °F 63 °F 95% NW  at  2.2 mph - / hr 2969 ft 5:41 PM EDT Normal

Show More Stations Show Fewer Stations